createdAt,value
2018-02-16T00:01:38.872Z,92.40
2018-02-16T00:04:04.809Z,92.40
2018-02-16T00:06:31.512Z,92.60
2018-02-16T00:08:57.460Z,92.60
2018-02-16T00:11:24.291Z,92.70
2018-02-16T00:13:50.235Z,92.70
2018-02-16T00:16:16.244Z,92.60
2018-02-16T00:18:42.195Z,92.70
2018-02-16T00:21:08.175Z,92.60
2018-02-16T00:23:34.157Z,92.70
2018-02-16T00:26:00.115Z,92.90
2018-02-16T00:28:26.198Z,92.70
2018-02-16T00:30:52.308Z,92.60
2018-02-16T00:33:18.332Z,92.40
2018-02-16T00:35:44.293Z,92.30
2018-02-16T00:38:10.228Z,92.40
2018-02-16T00:40:36.227Z,92.40
2018-02-16T00:43:02.238Z,92.50
2018-02-16T00:45:28.314Z,92.60
2018-02-16T00:47:54.254Z,92.60
2018-02-16T00:50:20.259Z,92.80
2018-02-16T00:52:46.248Z,93.30
2018-02-16T00:55:12.191Z,93.30
2018-02-16T00:57:38.163Z,93.20
2018-02-16T01:00:04.104Z,93.10
2018-02-16T01:02:30.207Z,92.80
2018-02-16T01:04:56.157Z,92.50
2018-02-16T01:07:22.196Z,92.60
2018-02-16T01:09:48.157Z,92.60
2018-02-16T01:12:14.837Z,92.50
2018-02-16T01:14:40.808Z,92.50
2018-02-16T01:17:07.499Z,92.30
2018-02-16T01:19:33.584Z,92.40
2018-02-16T01:21:59.534Z,92.80
2018-02-16T01:24:25.516Z,92.70
2018-02-16T01:26:51.463Z,93.00
2018-02-16T01:29:17.389Z,93.20
2018-02-16T01:31:43.495Z,93.30
2018-02-16T01:34:10.177Z,93.30
2018-02-16T01:36:36.244Z,93.30
2018-02-16T01:39:02.183Z,93.20
2018-02-16T01:41:28.157Z,93.40
2018-02-16T01:43:54.126Z,93.60
2018-02-16T01:46:20.864Z,93.80
2018-02-16T01:48:47.593Z,93.90
2018-02-16T01:51:14.287Z,93.90
2018-02-16T01:53:40.375Z,93.90
2018-02-16T01:56:06.330Z,94.00
2018-02-16T01:58:32.327Z,94.00
2018-02-16T02:00:58.271Z,94.00
2018-02-16T02:03:24.226Z,94.10
2018-02-16T02:05:50.195Z,94.10
2018-02-16T02:08:16.275Z,94.10
2018-02-16T02:10:42.255Z,94.00
2018-02-16T02:13:08.215Z,93.90
2018-02-16T02:15:34.193Z,94.00
2018-02-16T02:18:00.150Z,94.00
2018-02-16T02:20:26.130Z,93.90
2018-02-16T02:22:52.087Z,93.90
2018-02-16T02:25:18.187Z,93.90
2018-02-16T02:27:44.152Z,93.80
2018-02-16T02:30:10.236Z,93.70
2018-02-16T02:32:36.193Z,93.80
2018-02-16T02:35:02.136Z,93.80
2018-02-16T02:37:28.852Z,93.40
2018-02-16T02:39:54.812Z,93.50
2018-02-16T02:42:21.628Z,93.30
2018-02-16T02:44:47.577Z,93.30
2018-02-16T02:47:13.511Z,93.30
2018-02-16T02:49:39.448Z,93.20
2018-02-16T02:52:05.396Z,93.30
2018-02-16T02:54:31.379Z,93.50
2018-02-16T02:56:57.314Z,93.30
2018-02-16T02:59:23.413Z,93.20
2018-02-16T03:01:49.349Z,93.30
2018-02-16T03:04:15.327Z,93.10
2018-02-16T03:06:41.275Z,93.10
2018-02-16T03:09:07.947Z,93.20
2018-02-16T03:11:33.922Z,93.20
2018-02-16T03:14:00.774Z,92.90
2018-02-16T03:16:26.732Z,92.90
2018-02-16T03:18:52.673Z,93.10
2018-02-16T03:21:18.640Z,92.90
2018-02-16T03:23:45.340Z,93.00
2018-02-16T03:26:11.326Z,93.00
2018-02-16T03:28:37.287Z,93.10
2018-02-16T03:31:03.372Z,93.10
2018-02-16T03:33:29.469Z,93.20
2018-02-16T03:35:56.168Z,93.20
2018-02-16T03:38:22.147Z,93.20
2018-02-16T03:40:48.069Z,93.00
2018-02-16T03:43:14.050Z,93.00
2018-02-16T03:45:39.993Z,93.10
2018-02-16T03:48:05.923Z,93.20
2018-02-16T03:50:32.736Z,93.10
2018-02-16T03:52:58.666Z,93.20
2018-02-16T03:55:24.638Z,93.30
2018-02-16T03:57:50.567Z,93.30
2018-02-16T04:00:16.555Z,93.20
2018-02-16T04:02:42.491Z,93.30
2018-02-16T04:05:08.431Z,93.30
2018-02-16T04:07:34.507Z,93.30
2018-02-16T04:10:01.188Z,93.50
2018-02-16T04:12:27.146Z,93.80
2018-02-16T04:14:53.084Z,93.40
2018-02-16T04:17:19.808Z,93.60
2018-02-16T04:19:45.760Z,93.60
2018-02-16T04:22:12.455Z,93.70
2018-02-16T04:24:38.575Z,93.70
2018-02-16T04:27:04.515Z,93.60
2018-02-16T04:29:30.494Z,93.50
2018-02-16T04:31:56.433Z,93.70
2018-02-16T04:34:22.423Z,93.70
2018-02-16T04:36:48.368Z,93.70
2018-02-16T04:39:14.520Z,93.40
2018-02-16T04:41:40.473Z,93.40
2018-02-16T04:44:07.204Z,93.20
2018-02-16T04:46:33.917Z,93.30
2018-02-16T04:48:59.854Z,93.20
2018-02-16T04:51:25.829Z,93.10
2018-02-16T04:53:51.780Z,93.20
2018-02-16T04:56:17.880Z,93.10
2018-02-16T04:58:43.845Z,93.30
2018-02-16T05:01:09.822Z,93.20
2018-02-16T05:03:35.764Z,93.30
2018-02-16T05:06:01.695Z,93.20
2018-02-16T05:08:27.700Z,93.30
2018-02-16T05:10:53.634Z,93.20
2018-02-16T05:13:19.719Z,93.40
2018-02-16T05:15:45.673Z,93.50
2018-02-16T05:18:11.666Z,93.70
2018-02-16T05:20:37.612Z,93.70
2018-02-16T05:23:03.544Z,93.80
2018-02-16T05:25:29.517Z,94.00
2018-02-16T05:27:55.467Z,94.10
2018-02-16T05:30:21.700Z,94.10
2018-02-16T05:32:47.632Z,94.10
2018-02-16T05:35:13.593Z,94.10
2018-02-16T05:37:39.560Z,94.00
2018-02-16T05:40:05.528Z,94.00
2018-02-16T05:42:31.479Z,94.00
2018-02-16T05:44:57.439Z,94.00
2018-02-16T05:47:23.516Z,93.90
2018-02-16T05:49:50.203Z,94.00
2018-02-16T05:52:16.172Z,93.90
2018-02-16T05:54:43.489Z,94.30
2018-02-16T05:57:09.455Z,94.00
2018-02-16T05:59:36.151Z,93.90
2018-02-16T06:02:02.259Z,93.90
2018-02-16T06:04:28.248Z,93.90
2018-02-16T06:06:54.195Z,93.80
2018-02-16T06:09:20.939Z,93.70
2018-02-16T06:11:46.904Z,93.70
2018-02-16T06:14:12.876Z,93.40
2018-02-16T06:16:38.824Z,93.20
2018-02-16T06:19:04.800Z,93.10
2018-02-16T06:21:30.888Z,93.10
2018-02-16T06:23:56.869Z,93.10
2018-02-16T06:26:22.836Z,92.90
2018-02-16T06:28:48.788Z,92.50
2018-02-16T06:31:14.896Z,92.50
2018-02-16T06:33:40.899Z,92.40
2018-02-16T06:36:06.836Z,92.70
2018-02-16T06:38:32.922Z,92.70
2018-02-16T06:40:58.864Z,92.70
2018-02-16T06:43:25.767Z,92.70
2018-02-16T06:45:51.767Z,92.90
2018-02-16T06:48:18.476Z,92.90
2018-02-16T06:50:44.479Z,92.90
2018-02-16T06:53:12.262Z,92.80
2018-02-16T06:55:39.395Z,92.80
2018-02-16T06:58:05.337Z,92.90
2018-02-16T07:00:31.296Z,92.80
2018-02-16T07:02:57.259Z,92.80
2018-02-16T07:05:23.200Z,93.20
2018-02-16T07:07:49.163Z,92.80
2018-02-16T07:10:15.112Z,92.90
2018-02-16T07:12:41.325Z,93.00
2018-02-16T07:15:07.267Z,92.80
2018-02-16T07:17:33.202Z,92.50
2018-02-16T07:19:59.171Z,92.40
2018-02-16T07:22:25.122Z,92.10
2018-02-16T07:24:51.095Z,92.20
2018-02-16T07:27:17.776Z,91.70
2018-02-16T07:29:43.892Z,91.70
2018-02-16T07:32:10.009Z,91.80
2018-02-16T07:34:35.991Z,91.80
2018-02-16T07:37:01.989Z,91.70
2018-02-16T07:39:27.944Z,91.70
2018-02-16T07:41:53.937Z,92.10
2018-02-16T07:44:19.882Z,92.10
2018-02-16T07:46:45.972Z,91.90
2018-02-16T07:49:11.911Z,91.90
2018-02-16T07:51:37.883Z,91.90
2018-02-16T07:54:03.831Z,92.20
2018-02-16T07:56:29.791Z,92.20
2018-02-16T07:58:55.807Z,92.40
2018-02-16T08:01:21.751Z,92.50
2018-02-16T08:03:47.855Z,92.40
2018-02-16T08:06:13.801Z,92.60
2018-02-16T08:08:40.515Z,92.60
2018-02-16T08:11:06.465Z,92.60
2018-02-16T08:13:33.157Z,92.30
2018-02-16T08:15:59.136Z,92.30
2018-02-16T08:18:25.967Z,92.50
2018-02-16T08:20:52.662Z,92.70
2018-02-16T08:23:18.624Z,92.70
2018-02-16T08:25:45.367Z,92.60
2018-02-16T08:28:11.356Z,92.60
2018-02-16T08:30:37.379Z,92.70
2018-02-16T08:33:03.336Z,92.70
2018-02-16T08:35:30.178Z,92.80
2018-02-16T08:37:57.034Z,92.90
2018-02-16T08:40:22.998Z,92.90
2018-02-16T08:42:48.979Z,92.60
2018-02-16T08:45:14.917Z,92.40
2018-02-16T08:47:40.891Z,92.40
2018-02-16T08:50:06.839Z,92.50
2018-02-16T08:52:33.620Z,92.40
2018-02-16T08:54:59.609Z,92.40
2018-02-16T08:57:26.360Z,92.00
2018-02-16T08:59:52.308Z,92.00
2018-02-16T09:02:18.251Z,91.60
2018-02-16T09:04:44.265Z,91.70
2018-02-16T09:07:10.320Z,91.70
2018-02-16T09:09:36.433Z,91.90
2018-02-16T09:12:02.385Z,92.00
2018-02-16T09:14:28.373Z,92.20
2018-02-16T09:16:54.352Z,92.20
2018-02-16T09:19:20.345Z,91.80
2018-02-16T09:21:47.052Z,91.30
2018-02-16T09:24:12.996Z,91.30
2018-02-16T09:26:39.756Z,91.20
2018-02-16T09:29:05.717Z,91.20
2018-02-16T09:31:31.695Z,91.00
2018-02-16T09:33:58.399Z,91.00
2018-02-16T09:36:24.392Z,91.00
2018-02-16T09:38:50.520Z,91.30
2018-02-16T09:41:16.653Z,91.20
2018-02-16T09:43:42.619Z,91.20
2018-02-16T09:46:09.357Z,90.60
2018-02-16T09:48:35.304Z,90.60
2018-02-16T09:51:01.277Z,89.30
2018-02-16T09:53:27.260Z,90.40
2018-02-16T09:55:53.236Z,89.30
2018-02-16T09:58:19.372Z,88.40
2018-02-16T10:00:46.086Z,88.40
2018-02-16T10:03:12.034Z,87.70
2018-02-16T10:05:38.755Z,85.50
2018-02-16T10:08:05.481Z,86.40
2018-02-16T10:10:31.451Z,86.40
2018-02-16T10:12:57.390Z,86.30
2018-02-16T10:15:23.483Z,85.00
2018-02-16T10:17:49.432Z,86.10
2018-02-16T10:20:15.400Z,85.50
2018-02-16T10:22:41.396Z,85.90
2018-02-16T10:25:07.348Z,84.70
2018-02-16T10:27:33.320Z,86.00
2018-02-16T10:29:59.270Z,85.80
2018-02-16T10:32:25.384Z,83.80
2018-02-16T10:34:51.347Z,83.50
2018-02-16T10:37:17.460Z,83.60
2018-02-16T10:39:43.429Z,84.40
2018-02-16T10:42:09.373Z,84.60
2018-02-16T10:44:35.328Z,83.70
2018-02-16T10:47:01.288Z,84.50
2018-02-16T10:49:27.969Z,84.30
2018-02-16T10:51:53.946Z,84.20
2018-02-16T10:54:20.671Z,85.30
2018-02-16T10:56:46.616Z,85.20
2018-02-16T10:59:12.559Z,84.20
2018-02-16T11:01:38.592Z,83.70
2018-02-16T11:04:04.566Z,84.30
2018-02-16T11:06:31.244Z,84.40
2018-02-16T11:08:57.336Z,84.50
2018-02-16T11:11:23.282Z,84.70
2018-02-16T11:13:49.284Z,83.70
2018-02-16T11:16:15.992Z,84.60
2018-02-16T11:18:41.976Z,84.50
2018-02-16T11:21:07.931Z,84.20
2018-02-16T11:23:34.039Z,85.00
2018-02-16T11:25:59.989Z,85.10
2018-02-16T11:28:25.977Z,84.70
2018-02-16T11:30:52.098Z,84.70
2018-02-16T11:33:18.097Z,84.50
2018-02-16T11:35:44.027Z,84.90
2018-02-16T11:38:09.991Z,82.80
2018-02-16T11:40:36.088Z,80.50
2018-02-16T11:43:02.041Z,80.00
2018-02-16T11:45:28.078Z,80.20
2018-02-16T11:47:54.020Z,80.00
2018-02-16T11:50:20.700Z,80.50
2018-02-16T11:52:46.684Z,80.60
2018-02-16T11:55:12.648Z,81.10
2018-02-16T11:57:38.721Z,81.60
2018-02-16T12:00:04.671Z,79.50
2018-02-16T12:02:30.641Z,78.20
2018-02-16T12:04:56.604Z,78.10
2018-02-16T12:07:22.620Z,76.80
2018-02-16T12:09:48.577Z,76.90
2018-02-16T12:12:14.543Z,77.30
2018-02-16T12:14:40.644Z,78.00
2018-02-16T12:17:06.607Z,77.90
2018-02-16T12:19:32.583Z,78.80
2018-02-16T12:21:58.520Z,78.60
2018-02-16T12:24:24.475Z,78.30
2018-02-16T12:26:51.183Z,76.40
2018-02-16T12:29:17.119Z,77.10
2018-02-16T12:31:44.069Z,76.80
2018-02-16T12:34:10.766Z,75.60
2018-02-16T12:36:36.753Z,75.60
2018-02-16T12:39:02.695Z,75.40
2018-02-16T12:41:28.656Z,76.70
2018-02-16T12:43:54.639Z,76.10
2018-02-16T12:46:22.361Z,76.80
2018-02-16T12:48:48.948Z,76.90
2018-02-16T12:51:14.960Z,75.20
2018-02-16T12:53:40.932Z,74.70
2018-02-16T12:56:06.964Z,75.90
2018-02-16T12:58:33.676Z,75.30
2018-02-16T13:00:59.679Z,75.30
2018-02-16T13:03:25.666Z,76.90
2018-02-16T13:05:51.784Z,75.70
2018-02-16T13:08:18.520Z,72.60
2018-02-16T13:10:45.257Z,74.70
2018-02-16T13:13:12.033Z,71.50
2018-02-16T13:15:38.066Z,71.50
2018-02-16T13:18:04.070Z,74.40
2018-02-16T13:20:30.196Z,70.20
2018-02-16T13:22:56.189Z,69.80
2018-02-16T13:25:22.905Z,68.50
2018-02-16T13:27:48.915Z,68.40
2018-02-16T13:30:15.371Z,70.70
2018-02-16T13:32:41.755Z,70.20
2018-02-16T13:35:07.744Z,67.90
2018-02-16T13:37:34.630Z,64.40
2018-02-16T13:40:00.623Z,64.40
2018-02-16T13:42:26.625Z,63.00
2018-02-16T13:44:52.627Z,61.90
2018-02-16T13:47:18.632Z,65.10
2018-02-16T13:49:44.605Z,64.30
2018-02-16T13:52:10.596Z,65.60
2018-02-16T13:54:36.705Z,67.00
2018-02-16T13:57:02.702Z,67.90
2018-02-16T13:59:28.801Z,70.40
2018-02-16T14:01:54.791Z,71.90
2018-02-16T14:04:20.812Z,70.90
2018-02-16T14:06:46.787Z,70.90
2018-02-16T14:09:12.896Z,70.90
2018-02-16T14:11:39.600Z,72.00
2018-02-16T14:14:05.574Z,72.00
2018-02-16T14:16:31.578Z,70.20
2018-02-16T14:18:58.252Z,71.80
2018-02-16T14:21:24.273Z,71.80
2018-02-16T14:23:50.239Z,71.50
2018-02-16T14:26:16.356Z,71.40
2018-02-16T14:28:42.314Z,71.70
2018-02-16T14:31:08.647Z,70.00
2018-02-16T14:33:34.674Z,71.40
2018-02-16T14:36:00.616Z,65.80
2018-02-16T14:38:26.754Z,64.70
2018-02-16T14:40:52.704Z,64.90
2018-02-16T14:43:18.844Z,65.10
2018-02-16T14:45:45.560Z,64.10
2018-02-16T14:48:11.596Z,64.10
2018-02-16T14:50:37.581Z,64.10
2018-02-16T14:53:03.563Z,62.30
2018-02-16T14:55:30.280Z,63.00
2018-02-16T14:57:56.396Z,63.00
2018-02-16T15:00:22.392Z,61.50
2018-02-16T15:02:48.471Z,61.00
2018-02-16T15:05:15.186Z,63.90
2018-02-16T15:07:41.147Z,63.90
2018-02-16T15:10:07.163Z,65.90
2018-02-16T15:12:33.894Z,66.50
2018-02-16T15:15:00.644Z,66.60
2018-02-16T15:17:27.571Z,66.30
2018-02-16T15:19:56.913Z,66.00
2018-02-16T15:22:24.767Z,65.10
2018-02-16T15:24:54.635Z,66.30
2018-02-16T15:27:22.704Z,65.90
2018-02-16T15:29:51.075Z,65.90
2018-02-16T15:32:17.164Z,64.70
2018-02-16T15:34:44.616Z,64.80
2018-02-16T15:37:12.525Z,65.20
2018-02-16T15:39:43.176Z,64.60
2018-02-16T15:42:12.172Z,64.60
2018-02-16T15:44:39.994Z,63.30
2018-02-16T15:47:07.636Z,63.20
2018-02-16T15:49:34.071Z,63.00
2018-02-16T15:52:04.463Z,62.80
2018-02-16T15:54:30.714Z,63.10
2018-02-16T15:56:59.358Z,61.70
2018-02-16T15:59:26.992Z,63.60
2018-02-16T16:01:55.941Z,63.80
2018-02-16T16:04:24.866Z,63.00
2018-02-16T16:06:52.549Z,62.90
2018-02-16T16:09:20.103Z,62.90
2018-02-16T16:11:48.086Z,64.50
2018-02-16T16:14:15.488Z,65.80
2018-02-16T16:16:42.438Z,66.60
2018-02-16T16:19:08.471Z,66.80
2018-02-16T16:21:35.714Z,67.20
2018-02-16T16:24:02.873Z,67.30
2018-02-16T16:26:29.226Z,67.20
2018-02-16T16:28:57.891Z,67.00
2018-02-16T16:31:25.074Z,67.20
2018-02-16T16:33:52.919Z,67.10
2018-02-16T16:36:19.486Z,67.00
2018-02-16T16:38:46.805Z,67.10
2018-02-16T16:41:13.952Z,67.10
2018-02-16T16:43:40.618Z,66.80
2018-02-16T16:46:06.612Z,67.00
2018-02-16T16:48:32.669Z,67.10
2018-02-16T16:51:00.825Z,67.00
2018-02-16T16:53:26.861Z,67.00
2018-02-16T16:55:54.325Z,66.80
2018-02-16T16:58:25.230Z,66.90
2018-02-16T17:00:52.532Z,67.90
2018-02-16T17:03:22.417Z,67.40
2018-02-16T17:05:51.663Z,67.40
2018-02-16T17:08:19.553Z,68.00
2018-02-16T17:10:46.447Z,68.50
2018-02-16T17:13:15.899Z,68.60
2018-02-16T17:15:46.157Z,69.20
2018-02-16T17:18:14.535Z,69.20
2018-02-16T17:20:42.651Z,69.80
2018-02-16T17:23:11.060Z,69.80
2018-02-16T17:25:40.362Z,69.80
2018-02-16T17:28:09.349Z,69.90
2018-02-16T17:30:36.994Z,69.90
2018-02-16T17:33:05.840Z,70.10
2018-02-16T17:35:34.113Z,70.50
2018-02-16T17:38:02.308Z,70.50
2018-02-16T17:40:28.296Z,70.50
2018-02-16T17:42:55.685Z,70.70
2018-02-16T17:45:25.549Z,70.60
2018-02-16T17:47:56.194Z,71.00
2018-02-16T17:50:24.466Z,71.00
2018-02-16T17:52:52.422Z,71.00
2018-02-16T17:55:21.761Z,71.00
2018-02-16T17:57:49.827Z,71.30
2018-02-16T18:00:18.510Z,71.50
2018-02-16T18:02:47.043Z,71.50
2018-02-16T18:05:17.359Z,71.90
2018-02-16T18:07:47.218Z,71.90
2018-02-16T18:10:14.651Z,72.10
2018-02-16T18:12:42.994Z,71.90
2018-02-16T18:15:11.649Z,71.90
2018-02-16T18:17:40.549Z,71.80
2018-02-16T18:20:09.327Z,72.00
2018-02-16T18:22:38.740Z,72.00
2018-02-16T18:25:07.034Z,72.20
2018-02-16T18:27:35.539Z,72.40
2018-02-16T18:30:04.077Z,72.50
2018-02-16T18:32:34.648Z,72.50
2018-02-16T18:35:04.788Z,72.70
2018-02-16T18:37:36.991Z,73.10
2018-02-16T18:40:08.755Z,73.30
2018-02-16T18:42:35.971Z,73.40
2018-02-16T18:45:04.061Z,73.60
2018-02-16T18:47:36.724Z,73.70
2018-02-16T18:50:11.775Z,73.60
2018-02-16T18:52:43.012Z,73.60
2018-02-16T18:55:11.898Z,73.80
2018-02-16T18:57:42.015Z,74.60
2018-02-16T19:00:09.947Z,76.20
2018-02-16T19:02:41.328Z,75.00
2018-02-16T19:05:11.758Z,74.70
2018-02-16T19:07:39.515Z,74.50
2018-02-16T19:10:12.607Z,74.50
2018-02-16T19:15:40.696Z,74.10
2018-02-16T19:18:19.114Z,74.30
2018-02-16T19:20:59.417Z,74.60
2018-02-16T19:23:34.927Z,74.90
2018-02-16T19:26:17.001Z,75.00
2018-02-16T19:28:53.151Z,75.30
2018-02-16T19:31:25.890Z,75.30
2018-02-16T19:36:30.754Z,75.20
2018-02-16T19:38:59.701Z,75.70
2018-02-16T19:41:28.585Z,75.70
2018-02-16T19:43:58.005Z,76.00
2018-02-16T19:46:33.346Z,76.00
2018-02-16T19:49:02.828Z,76.20
2018-02-16T19:51:32.326Z,76.10
2018-02-16T19:53:58.414Z,76.40
2018-02-16T19:56:25.951Z,76.40
2018-02-16T19:58:52.837Z,76.20
2018-02-16T20:01:23.159Z,76.50
2018-02-16T20:03:49.392Z,76.70
2018-02-16T20:06:18.509Z,76.50
2018-02-16T20:08:51.342Z,77.00
2018-02-16T20:11:21.946Z,77.60
2018-02-16T20:16:32.894Z,77.60
2018-02-16T20:19:05.597Z,77.50
2018-02-16T20:21:47.608Z,77.20
2018-02-16T20:27:09.102Z,77.30
2018-02-16T20:29:47.774Z,77.20
2018-02-16T20:32:21.554Z,76.90
2018-02-16T20:37:23.927Z,77.40
2018-02-16T20:39:53.479Z,77.30
2018-02-16T20:42:22.693Z,77.50
2018-02-16T20:44:50.439Z,77.50
2018-02-16T20:47:17.655Z,77.20
2018-02-16T20:49:46.807Z,77.10
2018-02-16T20:52:14.648Z,76.90
2018-02-16T20:54:43.806Z,77.10
2018-02-16T20:57:11.535Z,77.10
2018-02-16T20:59:39.263Z,77.00
2018-02-16T21:02:07.561Z,76.90
2018-02-16T21:04:35.610Z,77.00
2018-02-16T21:07:05.361Z,77.00
2018-02-16T21:09:33.897Z,77.00
2018-02-16T21:12:06.775Z,77.20
2018-02-16T21:14:34.901Z,77.10
2018-02-16T21:17:03.636Z,77.10
2018-02-16T21:19:31.404Z,77.00
2018-02-16T21:21:59.477Z,77.00
2018-02-16T21:24:30.180Z,77.40
2018-02-16T21:27:02.583Z,78.50
2018-02-16T21:29:32.358Z,78.80
2018-02-16T21:32:02.571Z,78.80
2018-02-16T21:34:35.103Z,78.90
2018-02-16T21:37:05.799Z,78.80
2018-02-16T21:39:35.457Z,79.00
2018-02-16T21:42:03.358Z,80.20
2018-02-16T21:44:32.482Z,80.60
2018-02-16T21:47:04.526Z,80.30
2018-02-16T21:49:36.101Z,80.20
2018-02-16T21:52:09.000Z,80.30
2018-02-16T21:57:13.851Z,80.70
2018-02-16T21:59:45.845Z,81.10
2018-02-16T22:02:17.116Z,81.10
2018-02-16T22:04:45.970Z,80.60
2018-02-16T22:07:17.924Z,80.60
2018-02-16T22:09:47.913Z,80.30
2018-02-16T22:12:19.060Z,80.20
2018-02-16T22:14:48.880Z,80.00
2018-02-16T22:17:22.171Z,80.00
2018-02-16T22:19:52.406Z,79.70
2018-02-16T22:22:25.702Z,79.90
2018-02-16T22:24:57.398Z,79.90
2018-02-16T22:30:04.796Z,79.60
2018-02-16T22:32:34.472Z,80.00
2018-02-16T22:37:40.538Z,80.20
2018-02-16T22:40:11.202Z,80.20
2018-02-16T22:42:43.435Z,80.00
2018-02-16T22:45:14.560Z,79.70
2018-02-16T22:47:45.019Z,79.30
2018-02-16T22:50:16.366Z,79.20
2018-02-16T22:52:48.658Z,79.30
2018-02-16T22:55:21.181Z,79.90
2018-02-16T22:57:55.725Z,79.80
2018-02-16T23:00:25.060Z,79.80
2018-02-16T23:02:55.330Z,79.60
2018-02-16T23:05:25.251Z,79.50
2018-02-16T23:10:35.717Z,79.20
2018-02-16T23:13:04.836Z,79.20
2018-02-16T23:15:36.564Z,79.20
2018-02-16T23:18:05.900Z,79.20
2018-02-16T23:20:36.939Z,80.40
2018-02-16T23:23:05.998Z,80.50
2018-02-16T23:25:37.052Z,81.00
2018-02-16T23:28:08.863Z,80.90
2018-02-16T23:30:37.536Z,81.40
2018-02-16T23:33:10.021Z,80.80
2018-02-16T23:35:40.635Z,80.40
2018-02-16T23:38:11.573Z,79.80
2018-02-16T23:40:44.212Z,79.60
2018-02-16T23:43:14.449Z,78.90
2018-02-16T23:45:43.076Z,78.90
2018-02-16T23:48:12.398Z,78.60
2018-02-16T23:50:41.187Z,78.50
2018-02-16T23:53:11.093Z,78.70
2018-02-16T23:55:40.310Z,78.60
2018-02-16T23:58:08.753Z,78.40
